createdAt,value
2019-03-12T00:00:12.494Z,1017.74
2019-03-12T00:01:12.509Z,1017.74
2019-03-12T00:02:12.525Z,1017.77
2019-03-12T00:03:12.539Z,1017.74
2019-03-12T00:04:12.555Z,1017.73
2019-03-12T00:05:12.570Z,1017.73
2019-03-12T00:06:12.585Z,1017.65
2019-03-12T00:07:12.597Z,1017.66
2019-03-12T00:08:12.611Z,1017.62
2019-03-12T00:09:12.626Z,1017.66
2019-03-12T00:10:12.687Z,1017.68
2019-03-12T00:11:12.657Z,1017.68
2019-03-12T00:12:12.678Z,1017.61
2019-03-12T00:13:12.697Z,1017.56
2019-03-12T00:14:12.702Z,1017.58
2019-03-12T00:15:12.721Z,1017.57
2019-03-12T00:16:12.729Z,1017.60
2019-03-12T00:17:12.743Z,1017.55
2019-03-12T00:18:12.759Z,1017.57
2019-03-12T00:19:12.774Z,1017.53
2019-03-12T00:20:12.789Z,1017.52
2019-03-12T00:21:12.803Z,1017.52
2019-03-12T00:22:12.818Z,1017.52
2019-03-12T00:23:12.829Z,1017.49
2019-03-12T00:24:12.850Z,1017.56
2019-03-12T00:25:12.859Z,1017.53
2019-03-12T00:26:12.876Z,1017.52
2019-03-12T00:27:12.889Z,1017.53
2019-03-12T00:28:12.901Z,1017.50
2019-03-12T00:29:12.920Z,1017.53
2019-03-12T00:30:12.931Z,1017.53
2019-03-12T00:31:12.945Z,1017.51
2019-03-12T00:32:12.962Z,1017.54
2019-03-12T00:33:12.977Z,1017.52
2019-03-12T00:34:12.989Z,1017.59
2019-03-12T00:35:13.006Z,1017.62
2019-03-12T00:36:13.020Z,1017.60
2019-03-12T00:37:13.040Z,1017.59
2019-03-12T00:38:13.046Z,1017.57
2019-03-12T00:39:13.059Z,1017.59
2019-03-12T00:40:13.077Z,1017.61
2019-03-12T00:41:13.092Z,1017.62
2019-03-12T00:42:13.106Z,1017.60
2019-03-12T00:43:13.117Z,1017.61
2019-03-12T00:44:13.132Z,1017.62
2019-03-12T00:45:13.148Z,1017.62
2019-03-12T00:46:13.163Z,1017.63
2019-03-12T00:47:13.176Z,1017.69
2019-03-12T00:48:13.197Z,1017.70
2019-03-12T00:49:13.205Z,1017.68
2019-03-12T00:50:13.220Z,1017.68
2019-03-12T00:51:13.239Z,1017.69
2019-03-12T00:52:13.245Z,1017.67
2019-03-12T00:53:13.264Z,1017.68
2019-03-12T00:54:13.274Z,1017.68
2019-03-12T00:55:13.292Z,1017.70
2019-03-12T00:56:13.346Z,1017.70
2019-03-12T00:57:13.328Z,1017.74
2019-03-12T00:58:13.333Z,1017.77
2019-03-12T00:59:13.351Z,1017.75
2019-03-12T01:00:13.358Z,1017.75
2019-03-12T01:01:13.375Z,1017.75
2019-03-12T01:02:13.390Z,1017.77
2019-03-12T01:03:13.401Z,1017.78
2019-03-12T01:04:13.424Z,1017.77
2019-03-12T01:05:13.432Z,1017.71
2019-03-12T01:06:13.456Z,1017.72
2019-03-12T01:07:13.461Z,1017.70
2019-03-12T01:08:13.474Z,1017.66
2019-03-12T01:09:13.497Z,1017.66
2019-03-12T01:10:13.500Z,1017.63
2019-03-12T01:11:13.513Z,1017.65
2019-03-12T01:12:13.535Z,1017.61
2019-03-12T01:13:13.544Z,1017.61
2019-03-12T01:14:13.555Z,1017.57
2019-03-12T01:15:13.575Z,1017.56
2019-03-12T01:16:13.589Z,1017.55
2019-03-12T01:17:13.598Z,1017.51
2019-03-12T01:18:14.011Z,1017.46
2019-03-12T01:19:13.630Z,1017.49
2019-03-12T01:20:13.640Z,1017.43
2019-03-12T01:21:13.657Z,1017.41
2019-03-12T01:22:13.670Z,1017.43
2019-03-12T01:23:13.683Z,1017.45
2019-03-12T01:24:13.697Z,1017.39
2019-03-12T01:25:13.717Z,1017.36
2019-03-12T01:26:13.727Z,1017.47
2019-03-12T01:27:13.745Z,1017.42
2019-03-12T01:28:13.754Z,1017.43
2019-03-12T01:29:13.771Z,1017.41
2019-03-12T01:30:13.788Z,1017.38
2019-03-12T01:31:13.803Z,1017.33
2019-03-12T01:32:13.811Z,1017.34
2019-03-12T01:33:13.832Z,1017.31
2019-03-12T01:34:13.837Z,1017.29
2019-03-12T01:35:13.860Z,1017.30
2019-03-12T01:36:13.865Z,1017.28
2019-03-12T01:37:13.883Z,1017.27
2019-03-12T01:38:13.894Z,1017.25
2019-03-12T01:39:13.909Z,1017.29
2019-03-12T01:40:13.923Z,1017.26
2019-03-12T01:41:13.939Z,1017.21
2019-03-12T01:42:13.952Z,1017.22
2019-03-12T01:43:13.973Z,1017.20
2019-03-12T01:44:13.983Z,1017.18
2019-03-12T01:45:13.997Z,1017.20
2019-03-12T01:46:14.007Z,1017.18
2019-03-12T01:47:14.018Z,1017.25
2019-03-12T01:48:14.032Z,1017.19
2019-03-12T01:49:14.056Z,1017.15
2019-03-12T01:50:14.064Z,1017.19
2019-03-12T01:51:14.073Z,1017.17
2019-03-12T01:52:14.096Z,1017.16
2019-03-12T01:53:14.105Z,1017.16
2019-03-12T01:54:14.123Z,1017.16
2019-03-12T01:55:14.143Z,1017.15
2019-03-12T01:56:14.146Z,1017.13
2019-03-12T01:57:14.164Z,1017.17
2019-03-12T01:58:14.764Z,1017.16
2019-03-12T01:59:14.187Z,1017.11
2019-03-12T02:00:14.199Z,1017.13
2019-03-12T02:01:14.216Z,1017.15
2019-03-12T02:02:14.230Z,1017.07
2019-03-12T02:03:14.241Z,1017.06
2019-03-12T02:04:14.259Z,1017.07
2019-03-12T02:05:15.022Z,1017.01
2019-03-12T02:06:14.305Z,1016.99
2019-03-12T02:07:14.303Z,1016.99
2019-03-12T02:08:14.312Z,1016.95
2019-03-12T02:09:14.331Z,1016.91
2019-03-12T02:10:14.347Z,1016.87
2019-03-12T02:11:14.363Z,1016.90
2019-03-12T02:12:14.368Z,1016.90
2019-03-12T02:13:14.386Z,1016.96
2019-03-12T02:14:14.394Z,1016.91
2019-03-12T02:15:14.407Z,1016.94
2019-03-12T02:16:14.433Z,1016.91
2019-03-12T02:17:14.435Z,1016.86
2019-03-12T02:18:14.451Z,1016.86
2019-03-12T02:19:14.466Z,1016.81
2019-03-12T02:20:14.477Z,1016.76
2019-03-12T02:21:14.492Z,1016.77
2019-03-12T02:22:14.506Z,1016.69
2019-03-12T02:23:14.520Z,1016.71
2019-03-12T02:24:14.534Z,1016.68
2019-03-12T02:25:14.548Z,1016.65
2019-03-12T02:26:14.559Z,1016.63
2019-03-12T02:27:14.572Z,1016.68
2019-03-12T02:28:14.588Z,1016.71
2019-03-12T02:29:14.600Z,1016.69
2019-03-12T02:30:14.619Z,1016.70
2019-03-12T02:31:14.643Z,1016.65
2019-03-12T02:32:14.645Z,1016.61
2019-03-12T02:33:14.673Z,1016.60
2019-03-12T02:34:14.680Z,1016.58
2019-03-12T02:35:14.690Z,1016.55
2019-03-12T02:36:14.702Z,1016.55
2019-03-12T02:37:14.720Z,1016.50
2019-03-12T02:38:14.725Z,1016.51
2019-03-12T02:39:14.737Z,1016.49
2019-03-12T02:40:14.752Z,1016.51
2019-03-12T02:41:14.890Z,1016.47
2019-03-12T02:42:14.781Z,1016.47
2019-03-12T02:43:14.797Z,1016.38
2019-03-12T02:44:14.818Z,1016.43
2019-03-12T02:45:14.826Z,1016.36
2019-03-12T02:46:14.835Z,1016.37
2019-03-12T02:47:14.847Z,1016.38
2019-03-12T02:48:14.863Z,1016.40
2019-03-12T02:49:14.886Z,1016.41
2019-03-12T02:50:14.916Z,1016.38
2019-03-12T02:51:14.907Z,1016.42
2019-03-12T02:52:14.932Z,1016.31
2019-03-12T02:53:14.933Z,1016.34
2019-03-12T02:54:14.954Z,1016.32
2019-03-12T02:55:14.958Z,1016.29
2019-03-12T02:56:14.975Z,1016.28
2019-03-12T02:57:14.983Z,1016.29
2019-03-12T02:58:15.007Z,1016.27
2019-03-12T02:59:15.010Z,1016.26
2019-03-12T03:00:15.026Z,1016.21
2019-03-12T03:01:15.047Z,1016.14
2019-03-12T03:02:15.056Z,1016.13
2019-03-12T03:03:15.065Z,1016.14
2019-03-12T03:04:15.081Z,1016.13
2019-03-12T03:05:15.093Z,1016.12
2019-03-12T03:06:15.106Z,1016.13
2019-03-12T03:07:15.119Z,1016.12
2019-03-12T03:08:15.137Z,1016.13
2019-03-12T03:09:15.148Z,1016.12
2019-03-12T03:10:15.170Z,1016.07
2019-03-12T03:11:15.176Z,1016.05
2019-03-12T03:12:15.198Z,1016.06
2019-03-12T03:13:15.231Z,1016.09
2019-03-12T03:14:15.215Z,1016.09
2019-03-12T03:15:15.236Z,1016.14
2019-03-12T03:16:15.241Z,1016.12
2019-03-12T03:17:15.259Z,1016.11
2019-03-12T03:18:15.273Z,1016.08
2019-03-12T03:19:15.285Z,1016.10
2019-03-12T03:20:15.304Z,1016.11
2019-03-12T03:21:15.309Z,1016.11
2019-03-12T03:22:15.328Z,1016.11
2019-03-12T03:23:15.337Z,1016.14
2019-03-12T03:24:15.350Z,1016.10
2019-03-12T03:25:15.365Z,1016.10
2019-03-12T03:26:15.378Z,1016.09
2019-03-12T03:27:15.392Z,1016.08
2019-03-12T03:28:15.410Z,1016.04
2019-03-12T03:29:15.419Z,1015.97
2019-03-12T03:30:15.432Z,1016.04
2019-03-12T03:31:15.447Z,1015.99
2019-03-12T03:32:15.474Z,1015.98
2019-03-12T03:33:15.553Z,1015.99
2019-03-12T03:34:15.551Z,1016.00
2019-03-12T03:35:15.747Z,1015.95
2019-03-12T03:36:15.519Z,1015.95
2019-03-12T03:37:15.530Z,1015.96
2019-03-12T03:38:15.542Z,1015.90
2019-03-12T03:39:15.555Z,1015.97
2019-03-12T03:40:15.569Z,1015.89
2019-03-12T03:41:15.579Z,1015.94
2019-03-12T03:42:15.596Z,1015.93
2019-03-12T03:43:15.752Z,1015.91
2019-03-12T03:44:15.626Z,1015.89
2019-03-12T03:45:15.637Z,1015.88
2019-03-12T03:46:15.756Z,1015.91
2019-03-12T03:47:19.726Z,1015.82
2019-03-12T03:48:15.683Z,1015.81
2019-03-12T03:49:15.687Z,1015.86
2019-03-12T03:50:15.704Z,1015.83
2019-03-12T03:51:15.715Z,1015.82
2019-03-12T03:52:15.732Z,1015.81
2019-03-12T03:53:15.745Z,1015.82
2019-03-12T03:54:15.754Z,1015.82
2019-03-12T03:55:15.776Z,1015.84
2019-03-12T03:56:15.782Z,1015.82
2019-03-12T03:57:15.795Z,1015.84
2019-03-12T03:58:15.811Z,1015.81
2019-03-12T03:59:15.829Z,1015.78
2019-03-12T04:00:15.986Z,1015.76
2019-03-12T04:01:15.853Z,1015.82
2019-03-12T04:02:15.873Z,1015.78
2019-03-12T04:03:15.878Z,1015.77
2019-03-12T04:04:15.893Z,1015.77
2019-03-12T04:05:15.906Z,1015.75
2019-03-12T04:06:15.919Z,1015.77
2019-03-12T04:07:15.934Z,1015.72
2019-03-12T04:08:15.949Z,1015.71
2019-03-12T04:09:15.964Z,1015.71
2019-03-12T04:10:15.974Z,1015.67
2019-03-12T04:11:15.994Z,1015.75
2019-03-12T04:12:16.000Z,1015.72
2019-03-12T04:13:16.012Z,1015.74
2019-03-12T04:14:16.030Z,1015.68
2019-03-12T04:15:16.040Z,1015.71
2019-03-12T04:16:16.061Z,1015.68
2019-03-12T04:17:16.072Z,1015.63
2019-03-12T04:18:16.089Z,1015.65
2019-03-12T04:19:16.094Z,1015.66
2019-03-12T04:20:16.113Z,1015.64
2019-03-12T04:21:16.123Z,1015.62
2019-03-12T04:22:16.136Z,1015.65
2019-03-12T04:23:16.436Z,1015.69
2019-03-12T04:24:16.162Z,1015.69
2019-03-12T04:25:16.174Z,1015.70
2019-03-12T04:26:16.187Z,1015.67
2019-03-12T04:27:16.206Z,1015.66
2019-03-12T04:28:16.223Z,1015.67
2019-03-12T04:29:16.228Z,1015.64
2019-03-12T04:30:16.247Z,1015.60
2019-03-12T04:31:16.254Z,1015.61
2019-03-12T04:32:16.269Z,1015.64
2019-03-12T04:33:16.293Z,1015.60
2019-03-12T04:34:16.402Z,1015.55
2019-03-12T04:35:16.311Z,1015.54
2019-03-12T04:36:16.331Z,1015.52
2019-03-12T04:37:16.346Z,1015.49
2019-03-12T04:38:16.350Z,1015.49
2019-03-12T04:39:16.364Z,1015.41
2019-03-12T04:40:16.379Z,1015.44
2019-03-12T04:41:16.393Z,1015.41
2019-03-12T04:42:16.406Z,1015.39
2019-03-12T04:43:16.419Z,1015.34
2019-03-12T04:44:16.431Z,1015.34
2019-03-12T04:45:16.445Z,1015.32
2019-03-12T04:46:16.462Z,1015.32
2019-03-12T04:47:16.475Z,1015.28
2019-03-12T04:48:16.495Z,1015.29
2019-03-12T04:49:16.503Z,1015.26
2019-03-12T04:50:16.518Z,1015.26
2019-03-12T04:51:16.531Z,1015.26
2019-03-12T04:52:16.544Z,1015.30
2019-03-12T04:53:16.616Z,1015.21
2019-03-12T04:54:16.574Z,1015.22
2019-03-12T04:55:16.585Z,1015.17
2019-03-12T04:56:16.599Z,1015.17
2019-03-12T04:57:16.613Z,1015.18
2019-03-12T04:58:16.655Z,1015.10
2019-03-12T04:59:16.643Z,1015.11
2019-03-12T05:00:16.656Z,1015.11
2019-03-12T05:01:16.699Z,1015.11
2019-03-12T05:02:16.686Z,1015.04
2019-03-12T05:03:16.692Z,1015.02
2019-03-12T05:04:16.713Z,1015.00
2019-03-12T05:05:17.223Z,1014.95
2019-03-12T05:06:19.533Z,1014.93
2019-03-12T05:07:16.751Z,1014.88
2019-03-12T05:08:16.763Z,1014.88
2019-03-12T05:09:16.783Z,1014.90
2019-03-12T05:10:16.794Z,1014.85
2019-03-12T05:11:16.810Z,1014.82
2019-03-12T05:12:16.821Z,1014.83
2019-03-12T05:13:16.839Z,1014.81
2019-03-12T05:14:16.851Z,1014.78
2019-03-12T05:15:16.870Z,1014.86
2019-03-12T05:16:16.879Z,1014.88
2019-03-12T05:17:16.897Z,1014.83
2019-03-12T05:18:16.904Z,1014.82
2019-03-12T05:19:16.918Z,1014.81
2019-03-12T05:20:16.964Z,1014.76
2019-03-12T05:21:16.945Z,1014.74
2019-03-12T05:22:16.967Z,1014.76
2019-03-12T05:23:16.970Z,1014.82
2019-03-12T05:24:16.990Z,1014.78
2019-03-12T05:25:17.000Z,1014.81
2019-03-12T05:26:17.016Z,1014.82
2019-03-12T05:27:17.027Z,1014.76
2019-03-12T05:28:17.045Z,1014.75
2019-03-12T05:29:17.137Z,1014.76
2019-03-12T05:30:17.164Z,1014.66
2019-03-12T05:31:17.084Z,1014.66
2019-03-12T05:32:17.101Z,1014.58
2019-03-12T05:33:17.111Z,1014.58
2019-03-12T05:34:17.133Z,1014.60
2019-03-12T05:35:17.209Z,1014.58
2019-03-12T05:36:17.165Z,1014.58
2019-03-12T05:37:17.175Z,1014.56
2019-03-12T05:38:17.191Z,1014.58
2019-03-12T05:39:17.199Z,1014.50
2019-03-12T05:40:17.217Z,1014.54
2019-03-12T05:41:17.227Z,1014.57
2019-03-12T05:42:17.238Z,1014.61
2019-03-12T05:43:17.258Z,1014.58
2019-03-12T05:44:17.265Z,1014.54
2019-03-12T05:45:17.283Z,1014.51
2019-03-12T05:46:17.300Z,1014.49
2019-03-12T05:47:17.310Z,1014.47
2019-03-12T05:48:17.324Z,1014.40
2019-03-12T05:49:17.340Z,1014.44
2019-03-12T05:50:17.359Z,1014.39
2019-03-12T05:51:17.363Z,1014.41
2019-03-12T05:52:17.382Z,1014.43
2019-03-12T05:53:17.392Z,1014.39
2019-03-12T05:54:17.414Z,1014.38
2019-03-12T05:55:17.422Z,1014.37
2019-03-12T05:56:17.445Z,1014.24
2019-03-12T05:57:17.532Z,1014.25
2019-03-12T05:58:17.463Z,1014.25
2019-03-12T05:59:17.573Z,1014.30
2019-03-12T06:00:17.501Z,1014.26
2019-03-12T06:01:17.503Z,1014.21
2019-03-12T06:02:17.519Z,1014.25
2019-03-12T06:03:17.531Z,1014.22
2019-03-12T06:04:17.546Z,1014.20
2019-03-12T06:05:17.558Z,1014.20
2019-03-12T06:06:17.575Z,1014.19
2019-03-12T06:07:17.586Z,1014.20
2019-03-12T06:08:17.600Z,1014.16
2019-03-12T06:09:29.489Z,1014.15
2019-03-12T06:10:17.631Z,1014.20
2019-03-12T06:11:17.710Z,1014.15
2019-03-12T06:12:17.658Z,1014.13
2019-03-12T06:13:17.672Z,1014.17
2019-03-12T06:14:17.698Z,1014.12
2019-03-12T06:15:17.704Z,1014.10
2019-03-12T06:16:17.721Z,1014.07
2019-03-12T06:17:17.726Z,1014.02
2019-03-12T06:18:17.740Z,1013.99
2019-03-12T06:19:17.762Z,1013.95
2019-03-12T06:20:17.776Z,1013.97
2019-03-12T06:21:17.785Z,1013.97
2019-03-12T06:22:17.803Z,1013.96
2019-03-12T06:23:17.810Z,1013.97
2019-03-12T06:24:17.836Z,1013.96
2019-03-12T06:25:17.911Z,1013.98
2019-03-12T06:26:17.855Z,1013.94
2019-03-12T06:27:18.368Z,1013.89
2019-03-12T06:28:17.894Z,1013.81
2019-03-12T06:29:17.907Z,1013.82
2019-03-12T06:30:17.914Z,1013.84
2019-03-12T06:31:17.939Z,1013.80
2019-03-12T06:32:17.938Z,1013.79
2019-03-12T06:33:17.951Z,1013.77
2019-03-12T06:34:17.972Z,1013.76
2019-03-12T06:35:17.983Z,1013.75
2019-03-12T06:36:17.995Z,1013.74
2019-03-12T06:37:18.010Z,1013.74
2019-03-12T06:38:18.026Z,1013.72
2019-03-12T06:39:18.046Z,1013.70
2019-03-12T06:40:18.053Z,1013.72
2019-03-12T06:41:18.067Z,1013.72
2019-03-12T06:42:18.090Z,1013.74
2019-03-12T06:43:18.097Z,1013.69
2019-03-12T06:44:18.119Z,1013.68
2019-03-12T06:45:18.127Z,1013.59
2019-03-12T06:46:18.147Z,1013.56
2019-03-12T06:47:18.156Z,1013.50
2019-03-12T06:48:18.168Z,1013.45
2019-03-12T06:49:18.185Z,1013.38
2019-03-12T06:50:18.265Z,1013.38
2019-03-12T06:51:18.212Z,1013.32
2019-03-12T06:52:18.226Z,1013.38
2019-03-12T06:53:18.243Z,1013.33
2019-03-12T06:54:18.264Z,1013.35
2019-03-12T06:55:18.276Z,1013.38
2019-03-12T06:56:18.286Z,1013.36
2019-03-12T06:57:18.298Z,1013.35
2019-03-12T06:58:18.315Z,1013.37
2019-03-12T06:59:18.331Z,1013.34
2019-03-12T07:00:18.344Z,1013.32
2019-03-12T07:01:18.359Z,1013.33
2019-03-12T07:02:18.379Z,1013.36
2019-03-12T07:03:18.387Z,1013.33
2019-03-12T07:04:18.408Z,1013.29
2019-03-12T07:05:18.419Z,1013.25
2019-03-12T07:06:18.434Z,1013.27
2019-03-12T07:07:18.456Z,1013.28
2019-03-12T07:08:18.465Z,1013.27
2019-03-12T07:09:18.479Z,1013.25
2019-03-12T07:10:18.493Z,1013.24
2019-03-12T07:11:18.507Z,1013.23
2019-03-12T07:12:18.520Z,1013.19
2019-03-12T07:13:18.535Z,1013.19
2019-03-12T07:14:18.558Z,1013.15
2019-03-12T07:15:18.570Z,1013.12
2019-03-12T07:16:18.583Z,1013.08
2019-03-12T07:17:18.600Z,1013.07
2019-03-12T07:18:18.614Z,1013.05
2019-03-12T07:19:18.623Z,1013.07
2019-03-12T07:20:18.645Z,1012.95
2019-03-12T07:21:18.657Z,1012.99
2019-03-12T07:22:18.669Z,1012.93
2019-03-12T07:23:18.689Z,1012.92
2019-03-12T07:24:18.698Z,1012.92
2019-03-12T07:25:18.731Z,1012.83
2019-03-12T07:26:18.735Z,1012.85
2019-03-12T07:27:18.745Z,1012.86
2019-03-12T07:28:18.760Z,1012.82
2019-03-12T07:29:18.775Z,1012.77
2019-03-12T07:30:18.789Z,1012.77
2019-03-12T07:31:18.937Z,1012.75
2019-03-12T07:32:18.821Z,1012.75
2019-03-12T07:33:18.833Z,1012.73
2019-03-12T07:34:18.851Z,1012.73
2019-03-12T07:35:18.866Z,1012.74
2019-03-12T07:36:18.881Z,1012.70
2019-03-12T07:37:18.899Z,1012.73
2019-03-12T07:38:18.914Z,1012.68
2019-03-12T07:39:18.931Z,1012.63
2019-03-12T07:40:20.293Z,1012.64
2019-03-12T07:41:25.218Z,1012.63
2019-03-12T07:42:18.972Z,1012.65
2019-03-12T07:43:18.989Z,1012.71
2019-03-12T07:44:18.998Z,1012.66
2019-03-12T07:45:19.013Z,1012.66
2019-03-12T07:46:19.032Z,1012.69
2019-03-12T07:47:19.042Z,1012.66
2019-03-12T07:48:19.061Z,1012.74
2019-03-12T07:49:19.074Z,1012.75
2019-03-12T07:50:19.093Z,1012.72
2019-03-12T07:51:19.104Z,1012.74
2019-03-12T07:52:19.126Z,1012.76
2019-03-12T07:53:19.137Z,1012.72
2019-03-12T07:54:19.150Z,1012.71
2019-03-12T07:55:19.165Z,1012.73
2019-03-12T07:56:19.182Z,1012.73
2019-03-12T07:57:19.201Z,1012.79
2019-03-12T07:58:19.213Z,1012.78
2019-03-12T07:59:19.225Z,1012.74
2019-03-12T08:00:19.251Z,1012.71
2019-03-12T08:01:19.258Z,1012.68
2019-03-12T08:02:19.271Z,1012.71
2019-03-12T08:03:19.291Z,1012.69
2019-03-12T08:04:19.310Z,1012.66
2019-03-12T08:05:19.320Z,1012.69
2019-03-12T08:06:19.334Z,1012.64
2019-03-12T08:07:19.353Z,1012.65
2019-03-12T08:08:19.365Z,1012.61
2019-03-12T08:09:19.378Z,1012.61
2019-03-12T08:10:19.397Z,1012.54
2019-03-12T08:11:19.411Z,1012.61
2019-03-12T08:12:19.426Z,1012.50
2019-03-12T08:13:19.447Z,1012.54
2019-03-12T08:14:19.455Z,1012.51
2019-03-12T08:15:23.344Z,1012.54
2019-03-12T08:16:19.486Z,1012.41
2019-03-12T08:17:19.503Z,1012.45
2019-03-12T08:18:19.518Z,1012.43
2019-03-12T08:19:19.537Z,1012.40
2019-03-12T08:20:19.550Z,1012.30
2019-03-12T08:21:22.601Z,1012.35
2019-03-12T08:22:19.578Z,1012.41
2019-03-12T08:23:19.595Z,1012.37
2019-03-12T08:24:19.609Z,1012.35
2019-03-12T08:25:19.633Z,1012.31
2019-03-12T08:26:19.644Z,1012.33
2019-03-12T08:27:19.655Z,1012.31
2019-03-12T08:28:19.673Z,1012.30
2019-03-12T08:29:19.688Z,1012.25
2019-03-12T08:30:19.702Z,1012.29
2019-03-12T08:31:19.768Z,1012.23
2019-03-12T08:32:19.741Z,1012.16
2019-03-12T08:33:19.756Z,1012.17
2019-03-12T08:34:19.765Z,1012.18
2019-03-12T08:35:19.778Z,1012.14
2019-03-12T08:36:19.794Z,1012.15
2019-03-12T08:37:19.809Z,1012.15
2019-03-12T08:38:19.828Z,1012.14
2019-03-12T08:39:19.846Z,1012.05
2019-03-12T08:40:19.855Z,1012.04
2019-03-12T08:41:19.871Z,1012.00
2019-03-12T08:42:19.889Z,1011.98
2019-03-12T08:43:19.904Z,1011.92
2019-03-12T08:44:19.924Z,1011.87
2019-03-12T08:45:19.934Z,1011.80
2019-03-12T08:46:22.294Z,1011.73
2019-03-12T08:47:19.966Z,1011.67
2019-03-12T08:48:19.987Z,1011.65
2019-03-12T08:49:19.996Z,1011.60
2019-03-12T08:50:20.086Z,1011.58
2019-03-12T08:51:20.030Z,1011.55
2019-03-12T08:52:20.049Z,1011.49
2019-03-12T08:53:20.058Z,1011.46
2019-03-12T08:54:21.490Z,1011.42
2019-03-12T08:55:20.096Z,1011.42
2019-03-12T08:56:20.106Z,1011.45
2019-03-12T08:57:20.126Z,1011.44
2019-03-12T08:58:20.140Z,1011.45
2019-03-12T08:59:20.156Z,1011.38
2019-03-12T09:00:20.169Z,1011.39
2019-03-12T09:01:20.238Z,1011.31
2019-03-12T09:02:20.202Z,1011.31
2019-03-12T09:03:20.217Z,1011.25
2019-03-12T09:04:20.240Z,1011.20
2019-03-12T09:05:20.251Z,1011.18
2019-03-12T09:06:20.265Z,1011.13
2019-03-12T09:07:20.281Z,1011.14
2019-03-12T09:08:20.297Z,1011.11
2019-03-12T09:09:20.321Z,1011.02
2019-03-12T09:10:20.415Z,1010.98
2019-03-12T09:11:20.353Z,1010.99
2019-03-12T09:12:20.361Z,1011.01
2019-03-12T09:13:20.384Z,1010.92
2019-03-12T09:14:20.401Z,1010.94
2019-03-12T09:15:20.409Z,1010.90
2019-03-12T09:16:20.427Z,1010.84
2019-03-12T09:17:20.442Z,1010.82
2019-03-12T09:18:20.468Z,1010.85
2019-03-12T09:19:20.478Z,1010.86
2019-03-12T09:20:20.492Z,1010.77
2019-03-12T09:21:20.516Z,1010.78
2019-03-12T09:22:20.525Z,1010.76
2019-03-12T09:23:20.581Z,1010.74
2019-03-12T09:24:20.566Z,1010.65
2019-03-12T09:25:20.577Z,1010.61
2019-03-12T09:26:20.600Z,1010.53
2019-03-12T09:27:20.616Z,1010.49
2019-03-12T09:28:20.625Z,1010.49
2019-03-12T09:29:20.645Z,1010.45
2019-03-12T09:30:20.660Z,1010.40
2019-03-12T09:31:20.673Z,1010.40
2019-03-12T09:32:20.697Z,1010.41
2019-03-12T09:33:20.707Z,1010.34
2019-03-12T09:34:20.726Z,1010.24
2019-03-12T09:35:20.743Z,1010.17
2019-03-12T09:36:20.785Z,1010.15
2019-03-12T09:37:21.240Z,1010.15
2019-03-12T09:38:20.796Z,1010.13
2019-03-12T09:39:20.817Z,1010.03
2019-03-12T09:40:20.825Z,1010.09
2019-03-12T09:41:20.843Z,1010.02
2019-03-12T09:42:20.866Z,1010.01
2019-03-12T09:43:20.876Z,1009.98
2019-03-12T09:44:20.894Z,1009.98
2019-03-12T09:45:20.907Z,1009.96
2019-03-12T09:46:20.923Z,1009.93
2019-03-12T09:47:20.947Z,1009.90
2019-03-12T09:48:20.960Z,1009.92
2019-03-12T09:49:20.975Z,1009.91
2019-03-12T09:50:20.994Z,1009.92
2019-03-12T09:51:21.013Z,1009.87
2019-03-12T09:52:21.032Z,1009.81
2019-03-12T09:53:21.041Z,1009.87
2019-03-12T09:54:21.060Z,1009.78
2019-03-12T09:55:21.078Z,1009.86
2019-03-12T09:56:21.094Z,1009.81
2019-03-12T09:57:21.114Z,1009.87
2019-03-12T09:58:21.126Z,1009.82
2019-03-12T09:59:21.141Z,1009.71
2019-03-12T10:00:21.167Z,1009.74
2019-03-12T10:01:21.183Z,1009.78
2019-03-12T10:02:21.195Z,1009.69
2019-03-12T10:03:21.210Z,1009.60
2019-03-12T10:04:21.276Z,1009.62
2019-03-12T10:05:21.245Z,1009.61
2019-03-12T10:06:21.263Z,1009.56
2019-03-12T10:07:21.277Z,1009.50
2019-03-12T10:08:21.294Z,1009.44
2019-03-12T10:09:21.316Z,1009.41
2019-03-12T10:10:21.331Z,1009.34
2019-03-12T10:11:21.349Z,1009.40
2019-03-12T10:12:21.364Z,1009.30
2019-03-12T10:13:21.381Z,1009.32
2019-03-12T10:14:21.404Z,1009.30
2019-03-12T10:15:21.419Z,1009.16
2019-03-12T10:16:21.432Z,1009.13
2019-03-12T10:17:21.447Z,1009.09
2019-03-12T10:18:21.474Z,1009.13
2019-03-12T10:19:21.483Z,1009.06
2019-03-12T10:20:21.501Z,1008.99
2019-03-12T10:21:21.516Z,1009.02
2019-03-12T10:22:21.537Z,1009.03
2019-03-12T10:23:21.557Z,1008.99
2019-03-12T10:24:21.568Z,1008.96
2019-03-12T10:25:21.584Z,1008.95
2019-03-12T10:26:21.608Z,1009.01
2019-03-12T10:27:21.641Z,1009.00
2019-03-12T10:28:21.655Z,1008.89
2019-03-12T10:29:21.653Z,1008.89
2019-03-12T10:30:21.670Z,1008.89
2019-03-12T10:31:21.687Z,1008.86
2019-03-12T10:32:21.715Z,1008.83
2019-03-12T10:33:21.924Z,1008.83
2019-03-12T10:34:29.757Z,1008.70
2019-03-12T10:35:21.757Z,1008.75
2019-03-12T10:36:21.956Z,1008.70
2019-03-12T10:37:21.790Z,1008.57
2019-03-12T10:38:21.813Z,1008.62
2019-03-12T10:39:22.577Z,1008.65
2019-03-12T10:40:21.842Z,1008.51
2019-03-12T10:41:21.864Z,1008.47
2019-03-12T10:42:21.977Z,1008.44
2019-03-12T10:43:21.893Z,1008.42
2019-03-12T10:44:21.912Z,1008.30
2019-03-12T10:45:21.981Z,1008.33
2019-03-12T10:46:21.946Z,1008.34
2019-03-12T10:47:21.962Z,1008.34
2019-03-12T10:48:21.983Z,1008.19
2019-03-12T10:49:21.998Z,1008.29
2019-03-12T10:50:22.023Z,1008.29
2019-03-12T10:51:22.038Z,1008.29
2019-03-12T10:52:22.050Z,1008.37
2019-03-12T10:53:22.070Z,1008.27
2019-03-12T10:54:22.087Z,1008.25
2019-03-12T10:55:22.102Z,1008.12
2019-03-12T10:56:22.119Z,1008.21
2019-03-12T10:57:22.136Z,1008.14
2019-03-12T10:58:22.166Z,1008.14
2019-03-12T10:59:22.174Z,1008.15
2019-03-12T11:00:22.191Z,1008.10
2019-03-12T11:01:22.213Z,1008.06
2019-03-12T11:02:22.227Z,1007.98
2019-03-12T11:03:22.247Z,1008.01
2019-03-12T11:04:22.259Z,1007.94
2019-03-12T11:05:22.279Z,1007.99
2019-03-12T11:06:22.295Z,1008.00
2019-03-12T11:07:22.312Z,1007.83
2019-03-12T11:08:22.332Z,1007.88
2019-03-12T11:09:22.348Z,1007.85
2019-03-12T11:10:22.373Z,1007.71
2019-03-12T11:11:22.384Z,1007.69
2019-03-12T11:12:22.399Z,1007.53
2019-03-12T11:13:22.425Z,1007.58
2019-03-12T11:14:22.436Z,1007.63
2019-03-12T11:15:22.453Z,1007.56
2019-03-12T11:16:22.477Z,1007.59
2019-03-12T11:17:22.492Z,1007.59
2019-03-12T11:18:22.509Z,1007.56
2019-03-12T11:19:22.526Z,1007.53
2019-03-12T11:20:22.546Z,1007.50
2019-03-12T11:21:22.648Z,1007.43
2019-03-12T11:22:22.582Z,1007.31
2019-03-12T11:23:22.600Z,1007.40
2019-03-12T11:24:22.615Z,1007.27
2019-03-12T11:25:27.595Z,1007.35
2019-03-12T11:26:22.651Z,1007.38
2019-03-12T11:27:22.668Z,1007.32
2019-03-12T11:28:22.694Z,1007.32
2019-03-12T11:29:22.719Z,1007.30
2019-03-12T11:30:22.720Z,1007.29
2019-03-12T11:31:22.739Z,1007.24
2019-03-12T11:32:22.762Z,1007.18
2019-03-12T11:33:22.818Z,1007.16
2019-03-12T11:34:22.793Z,1007.01
2019-03-12T11:35:22.809Z,1007.03
2019-03-12T11:36:22.843Z,1007.01
2019-03-12T11:37:23.002Z,1006.99
2019-03-12T11:38:22.868Z,1007.03
2019-03-12T11:39:22.883Z,1006.99
2019-03-12T11:40:22.970Z,1006.84
2019-03-12T11:41:23.045Z,1006.90
2019-03-12T11:42:23.005Z,1006.89
2019-03-12T11:43:22.961Z,1006.84
2019-03-12T11:44:23.035Z,1006.81
2019-03-12T11:45:35.737Z,1006.76
2019-03-12T11:46:23.064Z,1006.72
2019-03-12T11:47:23.025Z,1006.51
2019-03-12T11:48:23.044Z,1006.68
2019-03-12T11:49:23.083Z,1006.60
2019-03-12T11:50:23.125Z,1006.58
2019-03-12T11:51:23.102Z,1006.46
2019-03-12T11:52:23.125Z,1006.54
2019-03-12T11:53:23.153Z,1006.47
2019-03-12T11:54:23.156Z,1006.42
2019-03-12T11:55:23.173Z,1006.31
2019-03-12T11:56:23.208Z,1006.31
2019-03-12T11:57:23.207Z,1006.16
2019-03-12T11:58:23.224Z,1006.29
2019-03-12T11:59:23.246Z,1006.29
2019-03-12T12:00:23.263Z,1006.21
2019-03-12T12:01:23.284Z,1006.17
2019-03-12T12:02:23.301Z,1006.09
2019-03-12T12:03:23.315Z,1006.11
2019-03-12T12:04:23.339Z,1006.07
2019-03-12T12:05:23.355Z,1005.99